Time;durP1;ratioP1;P1;durP2;ratioP2;P2;SDS_P1;SDS_P2;PMS_P1;PMS_P2;Temp;Humidity;BMP_temperature;BMP_pressure;BME280_temperature;BME280_humidity;BME280_pressure;Samples;Min_cycle;Max_cycle;Signal;HPM_P1;HPM_P2
2022/03/08 00:01:59;;;;;;;10.50;4.70;;;-1.10;59.80;;;;;;5047019;28;20489;-75
2022/03/08 00:04:25;;;;;;;7.25;4.22;;;-1.10;59.90;;;;;;5026918;28;20072;-75
2022/03/08 00:06:51;;;;;;;5.75;4.60;;;-1.10;60.00;;;;;;5042820;28;20068;-75
2022/03/08 00:09:16;;;;;;;5.43;4.07;;;-1.10;60.00;;;;;;5059840;28;20060;-75
2022/03/08 00:11:42;;;;;;;5.60;4.72;;;-1.10;60.10;;;;;;5060396;28;20066;-75
2022/03/08 00:14:08;;;;;;;7.60;5.00;;;-1.10;60.70;;;;;;5047677;28;20061;-75
2022/03/08 00:16:33;;;;;;;7.07;4.45;;;-1.10;60.30;;;;;;5027808;28;20068;-75
2022/03/08 00:18:59;;;;;;;7.38;4.18;;;-1.10;60.30;;;;;;5026520;28;20029;-75
2022/03/08 00:21:24;;;;;;;7.75;4.70;;;-1.10;60.40;;;;;;5029438;28;20067;-74
2022/03/08 00:23:50;;;;;;;6.82;4.85;;;-1.10;60.40;;;;;;5045683;28;20070;-75
2022/03/08 00:26:16;;;;;;;8.32;5.10;;;-1.10;60.40;;;;;;5028620;28;20029;-76
2022/03/08 00:28:41;;;;;;;8.02;4.45;;;-1.20;60.40;;;;;;5056267;28;20033;-75
2022/03/08 00:31:07;;;;;;;10.95;4.78;;;-1.20;61.30;;;;;;5041527;28;20146;-75
2022/03/08 00:33:32;;;;;;;6.88;4.38;;;-1.20;60.60;;;;;;5028253;28;20036;-73
2022/03/08 00:35:58;;;;;;;7.20;4.03;;;-1.20;60.70;;;;;;5059943;28;20559;-75
2022/03/08 00:38:23;;;;;;;6.55;4.57;;;-1.30;60.70;;;;;;5059083;28;20406;-75
2022/03/08 00:40:49;;;;;;;6.88;4.60;;;-1.30;60.80;;;;;;5054621;28;20048;-74
2022/03/08 00:43:15;;;;;;;8.02;4.75;;;-1.40;60.80;;;;;;5059710;28;20170;-75
2022/03/08 00:45:40;;;;;;;8.90;5.03;;;-1.40;61.00;;;;;;5057257;28;20033;-75
2022/03/08 00:48:06;;;;;;;8.18;4.65;;;-1.40;61.10;;;;;;5034707;28;20543;-75
2022/03/08 00:50:31;;;;;;;8.07;4.43;;;-1.50;61.10;;;;;;5052778;28;20113;-75
2022/03/08 00:52:58;;;;;;;8.63;4.88;;;-1.40;61.30;;;;;;5033343;28;20035;-75
2022/03/08 00:55:24;;;;;;;8.07;5.15;;;-1.40;61.40;;;;;;5010660;28;20032;-75
2022/03/08 00:57:50;;;;;;;6.10;4.45;;;-1.50;61.40;;;;;;5041153;28;20110;-75
2022/03/08 01:00:17;;;;;;;6.30;4.80;;;-1.50;61.40;;;;;;5043504;28;20037;-75
2022/03/08 01:02:42;;;;;;;7.07;4.93;;;-1.50;61.60;;;;;;5042196;28;20036;-76
2022/03/08 01:05:08;;;;;;;5.30;4.40;;;-1.60;61.60;;;;;;5058425;28;20051;-75
2022/03/08 01:07:34;;;;;;;8.75;4.50;;;-1.60;61.60;;;;;;5061678;28;20550;-75
2022/03/08 01:09:59;;;;;;;7.32;4.63;;;-1.60;61.60;;;;;;5042328;28;20028;-74
2022/03/08 01:12:25;;;;;;;9.25;5.22;;;-1.70;61.60;;;;;;5059820;28;22405;-75
2022/03/08 01:14:51;;;;;;;8.88;4.50;;;-1.70;61.80;;;;;;5051671;28;20033;-76
2022/03/08 01:17:16;;;;;;;8.88;5.30;;;-1.70;62.00;;;;;;5062645;28;20055;-75
2022/03/08 01:19:42;;;;;;;8.32;4.90;;;-1.70;62.10;;;;;;5058463;28;20024;-76
2022/03/08 01:22:07;;;;;;;7.45;4.57;;;-1.70;62.30;;;;;;5042774;28;20485;-74
2022/03/08 01:24:33;;;;;;;7.15;4.53;;;-1.70;62.40;;;;;;5047797;28;20036;-74
2022/03/08 01:26:59;;;;;;;8.05;4.45;;;-1.70;62.50;;;;;;5030251;28;20036;-75
2022/03/08 01:29:25;;;;;;;5.60;4.30;;;-1.70;62.40;;;;;;5055807;28;20044;-75
2022/03/08 01:31:50;;;;;;;8.13;4.97;;;-1.70;62.50;;;;;;5037479;28;20068;-75
2022/03/08 01:34:16;;;;;;;8.52;5.00;;;-1.70;62.60;;;;;;5045162;28;20505;-76
2022/03/08 01:36:41;;;;;;;7.47;4.88;;;-1.70;62.60;;;;;;5042634;28;20681;-75
2022/03/08 01:39:07;;;;;;;6.70;4.32;;;-1.70;62.60;;;;;;5033717;28;20539;-75
2022/03/08 01:41:33;;;;;;;6.43;4.40;;;-1.70;62.60;;;;;;5058368;28;20041;-73
2022/03/08 01:43:58;;;;;;;6.47;4.53;;;-1.70;62.80;;;;;;5053429;28;20040;-75
2022/03/08 01:46:24;;;;;;;5.75;4.20;;;-1.70;62.80;;;;;;5058075;28;20164;-76
2022/03/08 01:48:49;;;;;;;7.45;4.25;;;-1.80;62.70;;;;;;5006257;28;20043;-74
2022/03/08 01:51:15;;;;;;;7.55;4.93;;;-1.80;62.90;;;;;;5035585;28;20071;-75
2022/03/08 01:53:41;;;;;;;7.85;4.78;;;-1.80;62.90;;;;;;5044560;28;20165;-75
2022/03/08 01:56:10;;;;;;;8.30;4.72;;;-1.80;62.90;;;;;;5014077;28;20044;-75
2022/03/08 01:58:36;;;;;;;6.85;4.20;;;-1.80;62.90;;;;;;5047510;28;20032;-75
2022/03/08 02:01:02;;;;;;;8.32;4.85;;;-1.80;63.00;;;;;;5051851;28;20036;-74
2022/03/08 02:03:27;;;;;;;6.20;3.95;;;-1.80;63.10;;;;;;5049817;28;20032;-74
2022/03/08 02:05:53;;;;;;;8.13;4.95;;;-1.80;63.10;;;;;;5030863;28;20459;-75
2022/03/08 02:08:18;;;;;;;7.55;4.57;;;-1.80;63.20;;;;;;5057917;28;20052;-74
2022/03/08 02:10:44;;;;;;;7.55;5.00;;;-1.80;63.20;;;;;;5032189;28;20773;-75
2022/03/08 02:13:10;;;;;;;8.10;4.95;;;-1.80;63.20;;;;;;5060225;28;20043;-75
2022/03/08 02:15:35;;;;;;;6.82;4.72;;;-1.90;63.20;;;;;;5031569;28;20080;-74
2022/03/08 02:18:01;;;;;;;8.27;4.40;;;-1.90;63.20;;;;;;5029166;28;20044;-75
2022/03/08 02:20:27;;;;;;;7.20;4.63;;;-2.00;63.20;;;;;;5037562;28;20086;-76
2022/03/08 02:22:53;;;;;;;8.13;4.70;;;-2.00;63.30;;;;;;5038161;28;20143;-76
2022/03/08 02:25:19;;;;;;;7.93;5.20;;;-2.00;63.50;;;;;;5034284;28;20043;-75
2022/03/08 02:27:52;;;;;;;7.47;5.13;;;-2.00;63.50;;;;;;5037945;28;20047;-74
2022/03/08 02:30:19;;;;;;;9.75;4.82;;;-2.00;63.50;;;;;;5056452;28;20051;-76
2022/03/08 02:32:46;;;;;;;8.10;4.85;;;-2.10;63.60;;;;;;5054425;28;20032;-75
2022/03/08 02:35:25;;;;;;;11.45;5.90;;;-2.10;63.70;;;;;;5045901;28;20085;-76
2022/03/08 02:37:55;;;;;;;9.00;4.60;;;-2.10;63.90;;;;;;5051977;28;20040;-76
2022/03/08 02:40:22;;;;;;;10.48;5.47;;;-2.10;64.00;;;;;;5042520;28;20024;-75
2022/03/08 02:42:48;;;;;;;9.25;5.32;;;-2.20;63.90;;;;;;5051574;28;20646;-75
2022/03/08 02:45:14;;;;;;;9.07;5.22;;;-2.10;64.00;;;;;;5043393;28;20107;-75
2022/03/08 02:47:39;;;;;;;7.93;5.10;;;-2.10;64.00;;;;;;5036656;28;20039;-76
2022/03/08 02:50:07;;;;;;;9.07;4.70;;;-2.10;64.10;;;;;;5041774;28;20059;-74
2022/03/08 02:52:33;;;;;;;8.05;4.68;;;-2.10;64.20;;;;;;5035897;28;20028;-76
2022/03/08 02:54:59;;;;;;;7.20;4.90;;;-2.10;64.20;;;;;;5055699;28;20043;-75
2022/03/08 02:57:24;;;;;;;8.05;4.95;;;-2.10;64.20;;;;;;5037237;28;20037;-74
2022/03/08 02:59:50;;;;;;;8.77;4.68;;;-2.20;64.20;;;;;;5048456;28;20060;-75
2022/03/08 03:02:15;;;;;;;8.30;4.78;;;-2.20;64.20;;;;;;5048522;28;20098;-74
2022/03/08 03:04:42;;;;;;;6.40;4.15;;;-2.20;64.30;;;;;;5044158;28;20055;-75
2022/03/08 03:07:07;;;;;;;7.32;4.80;;;-2.20;64.40;;;;;;5040310;28;20029;-75
2022/03/08 03:09:33;;;;;;;7.55;4.85;;;-2.20;64.40;;;;;;5038597;28;20042;-75
2022/03/08 03:11:58;;;;;;;6.40;4.68;;;-2.30;64.50;;;;;;5040347;28;20032;-75
2022/03/08 03:14:24;;;;;;;6.93;4.45;;;-2.30;64.50;;;;;;5058789;28;20126;-75
2022/03/08 03:16:49;;;;;;;7.53;4.72;;;-2.30;64.50;;;;;;5050276;28;20151;-75
2022/03/08 03:19:15;;;;;;;6.70;4.45;;;-2.30;64.60;;;;;;5061410;28;20025;-75
2022/03/08 03:21:40;;;;;;;6.60;4.55;;;-2.30;64.80;;;;;;5057487;28;20131;-75
2022/03/08 03:24:06;;;;;;;8.52;4.82;;;-2.30;64.70;;;;;;5041331;28;20059;-76
2022/03/08 03:26:31;;;;;;;9.05;5.07;;;-2.30;64.80;;;;;;5042442;28;20813;-75
2022/03/08 03:28:57;;;;;;;7.00;4.15;;;-2.30;64.80;;;;;;5044029;28;20344;-76
2022/03/08 03:31:22;;;;;;;8.68;4.85;;;-2.30;64.90;;;;;;5062153;28;20041;-75
2022/03/08 03:33:48;;;;;;;7.22;4.70;;;-2.30;64.90;;;;;;5038400;28;20518;-75
2022/03/08 03:36:13;;;;;;;6.65;4.75;;;-2.30;65.00;;;;;;5041390;28;20718;-74
2022/03/08 03:38:39;;;;;;;7.57;5.25;;;-2.40;64.90;;;;;;5060047;28;20029;-75
2022/03/08 03:41:04;;;;;;;6.68;4.55;;;-2.40;65.00;;;;;;5050438;28;20065;-75
2022/03/08 03:43:30;;;;;;;7.63;4.68;;;-2.50;64.90;;;;;;5059152;28;20088;-76
2022/03/08 03:45:56;;;;;;;7.88;5.13;;;-2.50;65.10;;;;;;5019490;28;20044;-75
2022/03/08 03:48:21;;;;;;;7.13;4.97;;;-2.50;65.20;;;;;;5043483;28;20029;-75
2022/03/08 03:50:47;;;;;;;8.30;5.03;;;-2.50;65.20;;;;;;5056451;28;20099;-74
2022/03/08 03:53:12;;;;;;;11.07;5.32;;;-2.50;65.30;;;;;;5058068;28;20041;-75
2022/03/08 03:55:38;;;;;;;8.45;5.45;;;-2.50;65.40;;;;;;5053692;28;20223;-74
2022/03/08 03:58:03;;;;;;;11.48;5.65;;;-2.50;65.50;;;;;;5053236;28;20158;-74
2022/03/08 04:00:29;;;;;;;9.85;5.30;;;-2.50;65.50;;;;;;5054864;28;20173;-75
2022/03/08 04:02:55;;;;;;;8.65;5.75;;;-2.50;65.60;;;;;;5061586;28;20032;-75
2022/03/08 04:05:21;;;;;;;12.15;5.57;;;-2.60;65.50;;;;;;5062553;28;20382;-74
2022/03/08 04:07:46;;;;;;;8.27;5.30;;;-2.60;65.50;;;;;;5040514;28;20604;-75
2022/03/08 04:10:13;;;;;;;8.57;5.97;;;-2.60;65.60;;;;;;5028374;28;20114;-75
2022/03/08 04:12:38;;;;;;;12.82;7.07;;;-2.60;65.80;;;;;;5040781;28;20071;-74
2022/03/08 04:15:04;;;;;;;13.02;7.93;;;-2.70;65.80;;;;;;5057725;28;20087;-75
2022/03/08 04:17:30;;;;;;;13.60;9.40;;;-2.60;65.90;;;;;;5033327;28;20078;-73
2022/03/08 04:19:55;;;;;;;16.50;10.93;;;-2.70;65.70;;;;;;5065168;28;20036;-74
2022/03/08 04:22:21;;;;;;;16.50;11.07;;;-2.70;65.80;;;;;;5041355;28;20037;-75
2022/03/08 04:24:47;;;;;;;11.18;8.68;;;-2.70;65.80;;;;;;5033585;28;20059;-75
2022/03/08 04:27:12;;;;;;;15.90;10.88;;;-2.70;65.90;;;;;;5046646;28;20073;-76
2022/03/08 04:29:38;;;;;;;15.27;10.05;;;-2.70;66.80;;;;;;5061114;28;20659;-75
2022/03/08 04:32:04;;;;;;;13.38;9.57;;;-2.80;66.00;;;;;;5050783;28;20088;-74
2022/03/08 04:34:30;;;;;;;16.83;9.50;;;-2.80;66.00;;;;;;5040712;28;20464;-75
2022/03/08 04:36:55;;;;;;;10.75;7.97;;;-2.80;66.10;;;;;;5055723;28;20439;-75
2022/03/08 04:39:21;;;;;;;12.80;8.43;;;-2.80;66.20;;;;;;5038287;28;20098;-76
2022/03/08 04:41:46;;;;;;;19.10;7.53;;;-2.80;66.20;;;;;;5036098;28;20071;-75
2022/03/08 04:44:12;;;;;;;10.40;7.18;;;-2.80;66.30;;;;;;5058172;28;20029;-75
2022/03/08 04:46:37;;;;;;;13.45;8.20;;;-2.80;66.40;;;;;;5049055;28;20063;-75
2022/03/08 04:49:03;;;;;;;15.93;8.05;;;-2.80;66.40;;;;;;5050891;28;20028;-75
2022/03/08 04:51:28;;;;;;;13.35;7.50;;;-2.80;66.40;;;;;;5022999;28;20097;-75
2022/03/08 04:53:54;;;;;;;12.65;7.55;;;-2.80;66.40;;;;;;5057428;28;20052;-76
2022/03/08 04:56:20;;;;;;;12.63;7.93;;;-2.90;66.40;;;;;;5045915;28;20719;-74
2022/03/08 04:58:45;;;;;;;14.45;8.40;;;-2.90;66.40;;;;;;5056682;28;20040;-75
2022/03/08 05:01:12;;;;;;;14.43;9.43;;;-2.90;66.50;;;;;;5061942;28;20505;-75
2022/03/08 05:03:38;;;;;;;14.25;8.70;;;-2.90;66.50;;;;;;5030985;28;20051;-76
2022/03/08 05:06:04;;;;;;;14.93;8.02;;;-2.90;66.60;;;;;;5053859;28;20516;-75
2022/03/08 05:08:30;;;;;;;11.50;6.93;;;-2.90;66.60;;;;;;5057526;28;20033;-74
2022/03/08 05:10:56;;;;;;;10.00;6.82;;;-3.00;66.70;;;;;;5049886;28;20032;-74
2022/03/08 05:13:22;;;;;;;11.98;6.93;;;-3.00;66.80;;;;;;5042559;28;20127;-75
2022/03/08 05:15:48;;;;;;;11.07;6.97;;;-3.00;66.80;;;;;;5049242;28;20512;-75
2022/03/08 05:18:15;;;;;;;10.30;6.40;;;-3.00;66.80;;;;;;5042166;28;20040;-74
2022/03/08 05:20:41;;;;;;;11.45;6.40;;;-3.00;66.90;;;;;;5058580;28;20120;-74
2022/03/08 05:23:07;;;;;;;21.25;10.68;;;-3.00;67.00;;;;;;5058345;28;20176;-75
2022/03/08 05:25:32;;;;;;;15.05;7.97;;;-3.10;66.90;;;;;;5033914;28;20035;-75
2022/03/08 05:27:58;;;;;;;14.35;8.27;;;-3.10;66.90;;;;;;5018216;28;20129;-74
2022/03/08 05:30:23;;;;;;;12.55;7.38;;;-3.10;67.10;;;;;;5059576;28;20024;-75
2022/03/08 05:32:49;;;;;;;11.45;6.53;;;-3.10;67.20;;;;;;5059859;28;20031;-74
2022/03/08 05:35:14;;;;;;;10.23;6.57;;;-3.10;67.20;;;;;;5056133;28;20028;-74
2022/03/08 05:37:40;;;;;;;9.48;5.80;;;-3.10;67.20;;;;;;5019953;28;20028;-74
2022/03/08 05:40:06;;;;;;;11.85;5.63;;;-3.20;67.20;;;;;;5043062;28;20882;-74
2022/03/08 05:42:32;;;;;;;9.50;5.95;;;-3.20;67.20;;;;;;5055168;28;20033;-75
2022/03/08 05:44:57;;;;;;;13.65;5.63;;;-3.20;67.20;;;;;;5060931;28;20021;-74
2022/03/08 05:47:23;;;;;;;9.95;5.80;;;-3.20;67.40;;;;;;5057629;28;20733;-73
2022/03/08 05:49:48;;;;;;;8.77;5.75;;;-3.20;67.50;;;;;;5048450;28;20032;-74
2022/03/08 05:52:14;;;;;;;9.20;5.68;;;-3.30;67.40;;;;;;5042945;28;20040;-73
2022/03/08 05:54:40;;;;;;;9.88;5.40;;;-3.30;67.40;;;;;;5031215;28;20195;-74
2022/03/08 05:57:05;;;;;;;10.80;6.47;;;-3.30;67.50;;;;;;5050919;28;20443;-74
2022/03/08 05:59:31;;;;;;;9.68;6.20;;;-3.30;67.50;;;;;;5056037;28;20688;-74
2022/03/08 06:01:56;;;;;;;9.43;6.18;;;-3.30;67.60;;;;;;5056868;28;20091;-73
2022/03/08 06:04:22;;;;;;;11.55;6.65;;;-3.30;67.70;;;;;;5036686;28;20460;-74
2022/03/08 06:06:47;;;;;;;11.07;6.40;;;-3.30;67.80;;;;;;5057084;28;20688;-74
2022/03/08 06:09:13;;;;;;;9.40;6.25;;;-3.30;67.80;;;;;;5058344;28;20120;-73
2022/03/08 06:11:38;;;;;;;10.57;6.07;;;-3.30;67.90;;;;;;5053535;28;20040;-74
2022/03/08 06:14:04;;;;;;;10.88;6.10;;;-3.30;67.90;;;;;;5041789;28;20111;-73
2022/03/08 06:16:29;;;;;;;11.18;6.30;;;-3.30;67.90;;;;;;5042033;28;20047;-74
2022/03/08 06:18:56;;;;;;;10.93;6.47;;;-3.30;68.00;;;;;;5059418;28;20032;-74
2022/03/08 06:21:22;;;;;;;9.98;6.22;;;-3.30;68.00;;;;;;5054359;28;20047;-75
2022/03/08 06:23:47;;;;;;;9.00;6.07;;;-3.30;68.00;;;;;;5056995;28;20071;-74
2022/03/08 06:26:13;;;;;;;12.10;6.80;;;-3.30;68.00;;;;;;5056170;28;20786;-74
2022/03/08 06:28:38;;;;;;;10.02;6.65;;;-3.30;68.10;;;;;;5055634;28;20032;-74
2022/03/08 06:31:04;;;;;;;10.18;6.47;;;-3.30;68.10;;;;;;5058211;28;20123;-73
2022/03/08 06:33:30;;;;;;;12.18;7.00;;;-3.30;68.20;;;;;;4989633;28;20038;-73
2022/03/08 06:35:55;;;;;;;10.13;7.13;;;-3.20;68.30;;;;;;5049794;28;20137;-74
2022/03/08 06:38:21;;;;;;;10.82;7.13;;;-3.20;68.40;;;;;;5057439;28;20032;-74
2022/03/08 06:40:46;;;;;;;17.33;8.77;;;-3.20;68.40;;;;;;5040086;28;20035;-74
2022/03/08 06:43:12;;;;;;;12.98;8.40;;;-3.10;68.50;;;;;;5047315;28;20044;-74
2022/03/08 06:45:38;;;;;;;24.67;13.98;;;-3.10;68.50;;;;;;5043753;28;20490;-74
2022/03/08 06:48:04;;;;;;;23.15;11.05;;;-3.00;68.60;;;;;;5048948;28;20032;-74
2022/03/08 06:50:29;;;;;;;44.13;18.52;;;-2.90;68.60;;;;;;5039231;28;20050;-74
2022/03/08 06:52:55;;;;;;;43.72;19.70;;;-2.90;68.70;;;;;;5041386;28;20675;-73
2022/03/08 06:55:20;;;;;;;51.95;22.52;;;-2.80;68.70;;;;;;5042873;28;20053;-74
2022/03/08 06:57:46;;;;;;;37.03;19.25;;;-2.80;68.70;;;;;;5062774;28;20068;-73
2022/03/08 07:00:12;;;;;;;53.33;25.75;;;-2.70;68.80;;;;;;5058617;28;20036;-74
2022/03/08 07:02:37;;;;;;;50.33;21.73;;;-2.60;68.80;;;;;;5048286;28;20128;-74
2022/03/08 07:05:04;;;;;;;34.35;16.67;;;-2.60;68.70;;;;;;5039057;28;20094;-75
2022/03/08 07:07:29;;;;;;;40.90;19.48;;;-2.50;68.80;;;;;;5054401;28;20588;-74
2022/03/08 07:09:55;;;;;;;29.48;15.05;;;-2.40;68.80;;;;;;5059222;28;20052;-74
2022/03/08 07:12:20;;;;;;;88.57;38.33;;;-2.30;68.90;;;;;;5044493;28;20528;-74
2022/03/08 07:14:46;;;;;;;40.47;21.45;;;-2.20;68.90;;;;;;5054787;28;20230;-74
2022/03/08 07:17:12;;;;;;;39.28;19.92;;;-2.10;69.00;;;;;;5048729;28;20462;-74
2022/03/08 07:19:37;;;;;;;36.90;17.73;;;-2.00;68.90;;;;;;5037107;28;20037;-74
2022/03/08 07:22:03;;;;;;;55.40;23.50;;;-1.90;69.00;;;;;;5042417;28;20028;-74
2022/03/08 07:24:28;;;;;;;42.67;19.67;;;-1.80;69.00;;;;;;5032341;28;20078;-74
2022/03/08 07:26:54;;;;;;;32.38;15.85;;;-1.70;69.00;;;;;;5038532;28;20812;-74
2022/03/08 07:29:20;;;;;;;22.75;13.27;;;-1.60;69.00;;;;;;5041925;28;20033;-73
2022/03/08 07:31:45;;;;;;;23.02;11.75;;;-1.50;69.00;;;;;;5038149;28;20044;-74
2022/03/08 07:34:11;;;;;;;23.48;13.50;;;-1.40;69.00;;;;;;5039975;28;20027;-74
2022/03/08 07:36:38;;;;;;;21.58;11.23;;;-1.30;68.90;;;;;;5039283;28;20036;-74
2022/03/08 07:39:03;;;;;;;28.80;14.85;;;-1.20;68.90;;;;;;5047240;28;20079;-74
2022/03/08 07:41:29;;;;;;;49.13;21.55;;;-1.10;68.90;;;;;;5034012;28;20047;-75
2022/03/08 07:43:54;;;;;;;29.58;14.20;;;-0.90;69.00;;;;;;5012036;28;20044;-74
2022/03/08 07:46:20;;;;;;;28.65;13.63;;;-0.80;69.00;;;;;;5040023;28;20044;-74
2022/03/08 07:48:46;;;;;;;33.95;14.90;;;-0.70;69.00;;;;;;5047378;28;20033;-75
2022/03/08 07:51:11;;;;;;;23.30;10.43;;;-0.50;69.10;;;;;;5057581;28;20052;-74
2022/03/08 07:53:37;;;;;;;16.30;9.98;;;-0.30;69.10;;;;;;5037250;28;20035;-75
2022/03/08 07:56:02;;;;;;;16.50;9.93;;;-0.20;68.90;;;;;;5033021;28;20033;-73
2022/03/08 07:58:28;;;;;;;15.52;9.65;;;-0.10;68.80;;;;;;5051247;28;20051;-74
2022/03/08 08:00:53;;;;;;;16.85;10.23;;;0.10;68.50;;;;;;5058992;28;20032;-75
2022/03/08 08:03:19;;;;;;;19.65;11.38;;;0.30;68.40;;;;;;5069035;28;20530;-74
2022/03/08 08:05:45;;;;;;;19.08;10.35;;;0.40;68.30;;;;;;5041554;28;20552;-75
2022/03/08 08:08:10;;;;;;;15.23;10.35;;;0.60;68.40;;;;;;5057105;28;20401;-75
2022/03/08 08:10:36;;;;;;;16.40;11.10;;;0.80;68.40;;;;;;5056496;28;20504;-74
2022/03/08 08:13:02;;;;;;;18.05;10.43;;;0.90;68.40;;;;;;5052250;28;20039;-75
2022/03/08 08:15:27;;;;;;;21.13;11.02;;;1.10;68.30;;;;;;5051816;28;20040;-75
2022/03/08 08:17:53;;;;;;;17.63;11.63;;;1.30;68.20;;;;;;5036310;28;20500;-74
2022/03/08 08:20:18;;;;;;;15.07;10.10;;;1.40;67.80;;;;;;5032813;28;20067;-75
2022/03/08 08:22:44;;;;;;;20.38;13.75;;;1.60;67.70;;;;;;5034183;28;20052;-74
2022/03/08 08:25:10;;;;;;;18.33;10.07;;;1.80;68.20;;;;;;5028912;28;20695;-75
2022/03/08 08:27:37;;;;;;;20.30;11.88;;;2.00;67.40;;;;;;5061680;28;20043;-74
2022/03/08 08:30:04;;;;;;;15.43;9.80;;;2.10;67.40;;;;;;5041252;28;20102;-75
2022/03/08 08:32:29;;;;;;;20.55;12.57;;;2.30;67.10;;;;;;5059550;28;20020;-74
2022/03/08 08:34:55;;;;;;;17.27;9.77;;;2.50;67.00;;;;;;5058584;28;20033;-75
2022/03/08 08:37:20;;;;;;;18.02;9.45;;;2.70;66.80;;;;;;5060409;28;20115;-75
2022/03/08 08:39:46;;;;;;;21.73;11.98;;;2.90;66.80;;;;;;5068661;28;20041;-75
2022/03/08 08:42:11;;;;;;;18.50;10.70;;;3.10;66.80;;;;;;5059006;28;20032;-75
2022/03/08 08:44:37;;;;;;;18.77;10.93;;;3.30;66.60;;;;;;5033076;28;20029;-75
2022/03/08 08:47:03;;;;;;;16.05;10.35;;;3.50;66.30;;;;;;5057518;28;20029;-75
2022/03/08 08:49:29;;;;;;;17.73;9.38;;;3.60;65.80;;;;;;5058876;28;20032;-76
2022/03/08 08:51:55;;;;;;;16.15;9.80;;;3.80;65.50;;;;;;5051355;28;20114;-75
2022/03/08 08:54:21;;;;;;;18.95;9.18;;;4.00;65.20;;;;;;5057757;28;20039;-75
2022/03/08 08:56:47;;;;;;;18.15;10.55;;;4.20;65.00;;;;;;5041637;28;20110;-75
2022/03/08 08:59:12;;;;;;;17.83;10.10;;;4.40;64.90;;;;;;5053659;28;20037;-74
2022/03/08 09:01:38;;;;;;;15.70;8.05;;;4.50;64.50;;;;;;5059263;28;20031;-74
2022/03/08 09:04:04;;;;;;;16.55;10.35;;;4.70;64.30;;;;;;5052526;28;20043;-75
2022/03/08 09:06:29;;;;;;;18.02;10.73;;;4.90;64.40;;;;;;5056813;28;20385;-76
2022/03/08 09:08:58;;;;;;;18.35;12.35;;;5.00;63.90;;;;;;5059082;28;20086;-75
2022/03/08 09:11:24;;;;;;;16.48;10.88;;;5.20;63.60;;;;;;5045960;28;20089;-75
2022/03/08 09:13:50;;;;;;;14.80;9.35;;;5.40;63.30;;;;;;5057115;28;20040;-76
2022/03/08 09:16:15;;;;;;;18.90;10.75;;;5.60;63.20;;;;;;5062576;28;20076;-75
2022/03/08 09:18:44;;;;;;;31.17;13.20;;;5.80;63.10;;;;;;5034646;28;20535;-75
2022/03/08 09:21:10;;;;;;;18.85;9.88;;;5.90;62.60;;;;;;5056734;28;20058;-74
2022/03/08 09:23:37;;;;;;;28.75;15.32;;;6.10;62.40;;;;;;5043047;28;20033;-75
2022/03/08 09:26:03;;;;;;;20.65;9.85;;;6.30;62.30;;;;;;5019975;28;20028;-75
2022/03/08 09:28:28;;;;;;;16.30;9.32;;;6.40;61.90;;;;;;5026116;28;20465;-75
2022/03/08 09:30:54;;;;;;;18.35;8.98;;;6.70;62.10;;;;;;5055782;28;20047;-75
2022/03/08 09:33:19;;;;;;;13.63;7.97;;;6.90;61.90;;;;;;5041167;28;20542;-75
2022/03/08 09:35:45;;;;;;;14.38;8.13;;;7.10;61.60;;;;;;5055151;28;20028;-76
2022/03/08 09:38:12;;;;;;;15.07;8.32;;;7.30;61.40;;;;;;5059691;28;20056;-76
2022/03/08 09:40:38;;;;;;;14.05;8.45;;;7.50;61.20;;;;;;5037904;28;20035;-75
2022/03/08 09:43:04;;;;;;;13.65;8.23;;;7.80;60.60;;;;;;5039404;28;20036;-76
2022/03/08 09:45:29;;;;;;;12.02;7.30;;;7.90;60.30;;;;;;5042565;28;20040;-76
2022/03/08 09:47:55;;;;;;;11.63;7.18;;;8.20;60.20;;;;;;5018966;28;20515;-76
2022/03/08 09:50:20;;;;;;;13.40;8.02;;;8.40;60.00;;;;;;5057535;28;20044;-76
2022/03/08 09:52:46;;;;;;;12.70;7.85;;;8.60;59.80;;;;;;5057566;28;20043;-75
2022/03/08 09:55:14;;;;;;;12.75;7.30;;;8.90;59.50;;;;;;5034522;28;20051;-76
2022/03/08 09:57:40;;;;;;;11.02;7.05;;;9.00;59.30;;;;;;5049363;28;20056;-76
2022/03/08 10:00:06;;;;;;;11.18;6.60;;;9.20;58.90;;;;;;5059590;28;20182;-76
2022/03/08 10:02:47;;;;;;;8.50;5.90;;;9.40;58.40;;;;;;5027708;28;20090;-76
2022/03/08 10:05:13;;;;;;;8.15;5.70;;;9.50;57.90;;;;;;5056923;28;20086;-76
2022/03/08 10:07:38;;;;;;;10.65;5.15;;;9.70;58.10;;;;;;5055194;28;20032;-75
2022/03/08 10:10:04;;;;;;;9.02;5.70;;;9.80;57.80;;;;;;5055464;28;20069;-75
2022/03/08 10:12:30;;;;;;;8.48;5.10;;;10.00;57.60;;;;;;5039272;28;20029;-76
2022/03/08 10:14:55;;;;;;;9.75;5.32;;;10.10;57.30;;;;;;5059280;28;20039;-76
2022/03/08 10:17:38;;;;;;;8.38;4.85;;;10.30;57.20;;;;;;5059238;28;20058;-75
2022/03/08 10:20:05;;;;;;;7.47;5.88;;;10.50;56.60;;;;;;5042959;28;20036;-76
2022/03/08 10:22:33;;;;;;;8.30;5.00;;;10.70;56.50;;;;;;5023311;28;20076;-77
2022/03/08 10:25:25;;;;;;;7.55;4.85;;;10.90;56.20;;;;;;5039296;28;20040;-76
2022/03/08 10:27:56;;;;;;;5.53;4.00;;;11.10;55.60;;;;;;5047230;28;20033;-76
2022/03/08 10:30:43;;;;;;;5.25;4.00;;;11.40;55.60;;;;;;5057415;28;20051;-75
2022/03/08 10:33:09;;;;;;;8.38;3.92;;;11.60;55.20;;;;;;5042068;28;20051;-76
2022/03/08 10:35:39;;;;;;;5.07;3.50;;;11.80;55.60;;;;;;5055198;28;20028;-76
2022/03/08 10:38:06;;;;;;;4.97;3.63;;;12.10;54.60;;;;;;5032489;28;20406;-76
2022/03/08 10:40:35;;;;;;;5.57;3.55;;;12.20;54.10;;;;;;5024734;28;20448;-76
2022/03/08 10:43:05;;;;;;;5.40;3.20;;;12.50;53.80;;;;;;5025679;28;20108;-76
2022/03/08 10:45:33;;;;;;;5.32;3.28;;;12.60;52.70;;;;;;5032045;28;20733;-75
2022/03/08 10:47:58;;;;;;;5.35;3.53;;;12.60;52.60;;;;;;5068404;28;20044;-75
2022/03/08 10:50:29;;;;;;;5.47;3.80;;;12.80;52.30;;;;;;5059724;28;20689;-76
2022/03/08 10:52:57;;;;;;;6.22;3.70;;;12.90;52.10;;;;;;5036802;28;20044;-75
2022/03/08 10:55:26;;;;;;;6.18;3.72;;;13.00;51.80;;;;;;5043805;28;20142;-76
2022/03/08 10:57:58;;;;;;;6.20;4.20;;;13.20;51.50;;;;;;5046905;28;20066;-76
2022/03/08 11:00:26;;;;;;;7.07;3.90;;;13.30;51.00;;;;;;5055498;28;20056;-76
2022/03/08 11:02:59;;;;;;;5.82;3.63;;;13.50;51.40;;;;;;5048285;28;20036;-76
2022/03/08 11:05:26;;;;;;;4.50;3.72;;;13.60;50.20;;;;;;5047738;28;20576;-76
2022/03/08 11:07:53;;;;;;;6.82;4.07;;;13.70;50.20;;;;;;5040022;28;20463;-76
2022/03/08 11:10:19;;;;;;;8.23;4.18;;;13.80;49.60;;;;;;5035699;28;20448;-75
2022/03/08 11:12:45;;;;;;;3.78;3.38;;;14.00;49.40;;;;;;5048746;28;20047;-75
2022/03/08 11:15:13;;;;;;;5.78;3.72;;;14.10;49.10;;;;;;5028067;28;20029;-75
2022/03/08 11:17:39;;;;;;;5.97;3.40;;;14.20;48.40;;;;;;5035001;28;20618;-75
2022/03/08 11:20:06;;;;;;;6.28;3.55;;;14.20;48.20;;;;;;5033484;28;20480;-75
2022/03/08 11:22:32;;;;;;;6.78;3.80;;;14.30;48.00;;;;;;5047532;28;20263;-75
2022/03/08 11:24:57;;;;;;;6.40;3.47;;;14.40;47.70;;;;;;5036541;28;20440;-75
2022/03/08 11:27:23;;;;;;;5.55;3.83;;;14.50;46.90;;;;;;5014322;28;20028;-76
2022/03/08 11:29:49;;;;;;;4.55;3.35;;;14.40;46.50;;;;;;5034791;28;20672;-76
2022/03/08 11:32:17;;;;;;;6.20;3.25;;;14.30;46.60;;;;;;5048364;28;20525;-75
2022/03/08 11:34:51;;;;;;;4.95;4.07;;;14.40;46.90;;;;;;5028778;28;20524;-75
2022/03/08 11:37:19;;;;;;;5.07;3.45;;;14.60;46.90;;;;;;5056556;28;20044;-75
2022/03/08 11:40:03;;;;;;;5.53;4.00;;;14.80;46.80;;;;;;5053412;28;20032;-76
2022/03/08 11:42:30;;;;;;;5.65;4.15;;;14.90;46.50;;;;;;5058595;28;20033;-76
2022/03/08 11:45:04;;;;;;;4.93;3.83;;;14.90;45.70;;;;;;5051447;28;20063;-75
2022/03/08 11:47:46;;;;;;;3.70;3.03;;;14.80;45.50;;;;;;5033111;28;20028;-76
2022/03/08 11:50:17;;;;;;;2.88;2.38;;;15.00;45.50;;;;;;5052997;28;20060;-75
2022/03/08 11:52:43;;;;;;;3.88;2.75;;;15.10;45.50;;;;;;5062227;28;20036;-77
2022/03/08 11:55:12;;;;;;;4.43;2.95;;;15.20;45.70;;;;;;5043836;28;20030;-76
2022/03/08 11:57:46;;;;;;;2.67;2.10;;;15.40;45.30;;;;;;5057936;28;20028;-76
2022/03/08 12:00:19;;;;;;;5.78;3.17;;;15.60;44.90;;;;;;5070969;28;20138;-76
2022/03/08 12:02:50;;;;;;;4.65;3.42;;;15.80;45.00;;;;;;5056488;28;20111;-75
2022/03/08 12:05:38;;;;;;;6.05;3.75;;;15.90;44.60;;;;;;5059439;28;20135;-77
2022/03/08 12:08:22;;;;;;;3.45;2.55;;;16.10;43.10;;;;;;5060394;28;20033;-76
2022/03/08 12:10:57;;;;;;;5.97;3.13;;;16.20;43.50;;;;;;5039330;28;20062;-76
2022/03/08 12:13:23;;;;;;;4.47;3.25;;;16.40;43.70;;;;;;5044855;28;20029;-77
2022/03/08 12:16:10;;;;;;;6.57;3.67;;;16.50;43.50;;;;;;5077426;28;20788;-77
2022/03/08 12:18:54;;;;;;;4.05;2.60;;;16.50;41.40;;;;;;5067162;28;20071;-76
2022/03/08 12:21:23;;;;;;;4.70;3.03;;;16.30;42.20;;;;;;5044339;28;20047;-76
2022/03/08 12:24:05;;;;;;;4.95;3.40;;;16.30;42.70;;;;;;5058488;28;20036;-76
2022/03/08 12:26:48;;;;;;;;;;;16.40;42.80;;;;;;5029999;28;20527;-77
2022/03/08 12:29:19;;;;;;;3.95;2.70;;;16.50;43.10;;;;;;5061087;28;19917;-76
2022/03/08 12:31:58;;;;;;;4.57;2.85;;;16.70;43.20;;;;;;5048630;28;20679;-76
2022/03/08 12:34:36;;;;;;;3.72;2.45;;;16.80;41.80;;;;;;5062191;28;20040;-76
2022/03/08 12:37:07;;;;;;;4.45;2.30;;;17.00;41.60;;;;;;5061172;28;20036;-77
2022/03/08 12:39:51;;;;;;;;;;;17.00;41.90;;;;;;5035575;28;20413;-79
2022/03/08 12:42:26;;;;;;;3.83;2.55;;;17.10;42.40;;;;;;5060038;28;19940;-77